sensor_id;sensor_type;location;lat;lon;timestamp;temperature;humidity
57753;DHT22;43583;53.132;6.574;2022-11-11T00:01:30;11.80;99.90
57753;DHT22;43583;53.132;6.574;2022-11-11T00:03:55;11.80;99.90
57753;DHT22;43583;53.132;6.574;2022-11-11T00:06:21;11.80;99.90
57753;DHT22;43583;53.132;6.574;2022-11-11T00:08:47;11.80;99.90
57753;DHT22;43583;53.132;6.574;2022-11-11T00:11:14;11.80;99.90
57753;DHT22;43583;53.132;6.574;2022-11-11T00:13:41;11.80;99.90
57753;DHT22;43583;53.132;6.574;2022-11-11T00:16:13;11.70;99.90
57753;DHT22;43583;53.132;6.574;2022-11-11T00:18:40;11.80;99.90
57753;DHT22;43583;53.132;6.574;2022-11-11T00:21:24;11.80;99.90
57753;DHT22;43583;53.132;6.574;2022-11-11T00:24:22;11.80;99.90
57753;DHT22;43583;53.132;6.574;2022-11-11T00:27:08;11.70;99.90
57753;DHT22;43583;53.132;6.574;2022-11-11T00:29:34;11.70;99.90
57753;DHT22;43583;53.132;6.574;2022-11-11T00:32:00;11.70;99.90
57753;DHT22;43583;53.132;6.574;2022-11-11T00:34:44;11.80;99.90
57753;DHT22;43583;53.132;6.574;2022-11-11T00:37:31;11.80;99.90
57753;DHT22;43583;53.132;6.574;2022-11-11T00:39:57;11.70;99.90
57753;DHT22;43583;53.132;6.574;2022-11-11T00:42:23;11.80;99.90
57753;DHT22;43583;53.132;6.574;2022-11-11T00:44:48;11.70;99.90
57753;DHT22;43583;53.132;6.574;2022-11-11T00:47:14;11.70;99.90
57753;DHT22;43583;53.132;6.574;2022-11-11T00:49:58;11.70;99.90
57753;DHT22;43583;53.132;6.574;2022-11-11T00:52:44;11.70;99.90
57753;DHT22;43583;53.132;6.574;2022-11-11T00:55:11;11.70;99.90
57753;DHT22;43583;53.132;6.574;2022-11-11T00:57:36;11.70;99.90
57753;DHT22;43583;53.132;6.574;2022-11-11T01:00:02;11.70;99.90
57753;DHT22;43583;53.132;6.574;2022-11-11T01:02:28;11.70;99.90
57753;DHT22;43583;53.132;6.574;2022-11-11T01:04:53;11.70;99.90
57753;DHT22;43583;53.132;6.574;2022-11-11T01:07:19;11.70;99.90
57753;DHT22;43583;53.132;6.574;2022-11-11T01:09:44;11.70;99.90
57753;DHT22;43583;53.132;6.574;2022-11-11T01:12:10;11.70;99.90
57753;DHT22;43583;53.132;6.574;2022-11-11T01:14:35;11.70;99.90
57753;DHT22;43583;53.132;6.574;2022-11-11T01:17:01;11.70;99.90
57753;DHT22;43583;53.132;6.574;2022-11-11T01:19:29;11.70;99.90
57753;DHT22;43583;53.132;6.574;2022-11-11T01:21:54;11.70;99.90
57753;DHT22;43583;53.132;6.574;2022-11-11T01:24:20;11.70;99.90
57753;DHT22;43583;53.132;6.574;2022-11-11T01:26:45;11.70;99.90
57753;DHT22;43583;53.132;6.574;2022-11-11T01:29:11;11.70;99.90
57753;DHT22;43583;53.132;6.574;2022-11-11T01:31:37;11.70;99.90
57753;DHT22;43583;53.132;6.574;2022-11-11T01:34:02;11.70;99.90
57753;DHT22;43583;53.132;6.574;2022-11-11T01:36:28;11.80;99.90
57753;DHT22;43583;53.132;6.574;2022-11-11T01:38:56;11.80;99.90
57753;DHT22;43583;53.132;6.574;2022-11-11T01:41:24;11.70;99.90
57753;DHT22;43583;53.132;6.574;2022-11-11T01:47:02;11.70;99.90
57753;DHT22;43583;53.132;6.574;2022-11-11T01:49:33;11.80;99.90
57753;DHT22;43583;53.132;6.574;2022-11-11T01:52:07;11.80;99.90
57753;DHT22;43583;53.132;6.574;2022-11-11T01:54:45;11.80;99.90
57753;DHT22;43583;53.132;6.574;2022-11-11T01:59:43;11.80;99.90
57753;DHT22;43583;53.132;6.574;2022-11-11T02:02:28;11.80;99.90
57753;DHT22;43583;53.132;6.574;2022-11-11T02:04:55;11.80;99.90
57753;DHT22;43583;53.132;6.574;2022-11-11T02:07:40;11.80;99.90
57753;DHT22;43583;53.132;6.574;2022-11-11T02:10:07;11.80;99.90
57753;DHT22;43583;53.132;6.574;2022-11-11T02:12:33;11.80;99.90
57753;DHT22;43583;53.132;6.574;2022-11-11T02:15:18;11.80;99.90
57753;DHT22;43583;53.132;6.574;2022-11-11T02:17:45;11.80;99.90
57753;DHT22;43583;53.132;6.574;2022-11-11T02:20:14;11.80;99.90
57753;DHT22;43583;53.132;6.574;2022-11-11T02:25:41;11.80;99.90
57753;DHT22;43583;53.132;6.574;2022-11-11T02:28:08;11.80;99.90
57753;DHT22;43583;53.132;6.574;2022-11-11T02:30:33;11.80;99.90
57753;DHT22;43583;53.132;6.574;2022-11-11T02:32:59;11.80;99.90
57753;DHT22;43583;53.132;6.574;2022-11-11T02:35:30;11.80;99.90
57753;DHT22;43583;53.132;6.574;2022-11-11T02:37:56;11.80;99.90
57753;DHT22;43583;53.132;6.574;2022-11-11T02:40:42;11.80;99.90
57753;DHT22;43583;53.132;6.574;2022-11-11T02:43:27;11.80;99.90
57753;DHT22;43583;53.132;6.574;2022-11-11T02:45:53;11.80;99.90
57753;DHT22;43583;53.132;6.574;2022-11-11T02:48:18;11.80;99.90
57753;DHT22;43583;53.132;6.574;2022-11-11T02:50:44;11.70;99.90
57753;DHT22;43583;53.132;6.574;2022-11-11T02:53:09;11.70;99.90
57753;DHT22;43583;53.132;6.574;2022-11-11T02:55:35;11.70;99.90
57753;DHT22;43583;53.132;6.574;2022-11-11T02:58:01;11.70;99.90
57753;DHT22;43583;53.132;6.574;2022-11-11T03:00:26;11.60;99.90
57753;DHT22;43583;53.132;6.574;2022-11-11T03:02:52;11.60;99.90
57753;DHT22;43583;53.132;6.574;2022-11-11T03:05:18;11.60;99.90
57753;DHT22;43583;53.132;6.574;2022-11-11T03:07:43;11.60;99.90
57753;DHT22;43583;53.132;6.574;2022-11-11T03:10:09;11.60;99.90
57753;DHT22;43583;53.132;6.574;2022-11-11T03:12:36;11.50;99.90
57753;DHT22;43583;53.132;6.574;2022-11-11T03:15:01;11.50;99.90
57753;DHT22;43583;53.132;6.574;2022-11-11T03:17:27;11.50;99.90
57753;DHT22;43583;53.132;6.574;2022-11-11T03:20:15;11.50;99.90
57753;DHT22;43583;53.132;6.574;2022-11-11T03:23:12;11.50;99.90
57753;DHT22;43583;53.132;6.574;2022-11-11T03:25:40;11.50;99.90
57753;DHT22;43583;53.132;6.574;2022-11-11T03:28:09;11.40;99.90
57753;DHT22;43583;53.132;6.574;2022-11-11T03:30:36;11.40;99.90
57753;DHT22;43583;53.132;6.574;2022-11-11T03:33:02;11.40;99.90
57753;DHT22;43583;53.132;6.574;2022-11-11T03:35:28;11.40;99.90
57753;DHT22;43583;53.132;6.574;2022-11-11T03:37:53;11.40;99.90
57753;DHT22;43583;53.132;6.574;2022-11-11T03:40:38;11.40;99.90
57753;DHT22;43583;53.132;6.574;2022-11-11T03:43:04;11.40;99.90
57753;DHT22;43583;53.132;6.574;2022-11-11T03:45:29;11.40;99.90
57753;DHT22;43583;53.132;6.574;2022-11-11T03:47:55;11.40;99.90
57753;DHT22;43583;53.132;6.574;2022-11-11T03:50:21;11.30;99.90
57753;DHT22;43583;53.132;6.574;2022-11-11T03:52:46;11.30;99.90
57753;DHT22;43583;53.132;6.574;2022-11-11T03:55:12;11.40;99.90
57753;DHT22;43583;53.132;6.574;2022-11-11T03:57:40;11.40;99.90
57753;DHT22;43583;53.132;6.574;2022-11-11T04:00:07;11.30;99.90
57753;DHT22;43583;53.132;6.574;2022-11-11T04:02:33;11.30;99.90
57753;DHT22;43583;53.132;6.574;2022-11-11T04:05:17;11.30;99.90
57753;DHT22;43583;53.132;6.574;2022-11-11T04:08:01;11.30;99.90
57753;DHT22;43583;53.132;6.574;2022-11-11T04:10:45;11.30;99.90
57753;DHT22;43583;53.132;6.574;2022-11-11T04:13:11;11.30;99.90
57753;DHT22;43583;53.132;6.574;2022-11-11T04:15:55;11.30;99.90
57753;DHT22;43583;53.132;6.574;2022-11-11T04:18:34;11.30;99.90
57753;DHT22;43583;53.132;6.574;2022-11-11T04:21:18;11.30;99.90
57753;DHT22;43583;53.132;6.574;2022-11-11T04:24:03;11.30;99.90
57753;DHT22;43583;53.132;6.574;2022-11-11T04:26:49;11.20;99.90
57753;DHT22;43583;53.132;6.574;2022-11-11T04:29:15;11.30;99.90
57753;DHT22;43583;53.132;6.574;2022-11-11T04:32:02;11.30;99.90
57753;DHT22;43583;53.132;6.574;2022-11-11T04:35:06;11.30;99.90
57753;DHT22;43583;53.132;6.574;2022-11-11T04:37:35;11.30;99.90
57753;DHT22;43583;53.132;6.574;2022-11-11T04:40:01;11.20;99.90
57753;DHT22;43583;53.132;6.574;2022-11-11T04:42:45;11.20;99.90
57753;DHT22;43583;53.132;6.574;2022-11-11T04:45:12;11.20;99.90
57753;DHT22;43583;53.132;6.574;2022-11-11T04:47:58;11.20;99.90
57753;DHT22;43583;53.132;6.574;2022-11-11T04:50:27;11.20;99.90
57753;DHT22;43583;53.132;6.574;2022-11-11T04:52:54;11.20;99.90
57753;DHT22;43583;53.132;6.574;2022-11-11T04:55:20;11.20;99.90
57753;DHT22;43583;53.132;6.574;2022-11-11T04:58:04;11.20;99.90
57753;DHT22;43583;53.132;6.574;2022-11-11T05:00:29;11.20;99.90
57753;DHT22;43583;53.132;6.574;2022-11-11T05:02:56;11.20;99.90
57753;DHT22;43583;53.132;6.574;2022-11-11T05:05:50;11.20;99.90
57753;DHT22;43583;53.132;6.574;2022-11-11T05:08:36;11.20;99.90
57753;DHT22;43583;53.132;6.574;2022-11-11T05:13:51;11.20;99.90
57753;DHT22;43583;53.132;6.574;2022-11-11T05:16:46;11.20;99.90
57753;DHT22;43583;53.132;6.574;2022-11-11T05:19:31;11.20;99.90
57753;DHT22;43583;53.132;6.574;2022-11-11T05:24:43;11.20;99.90
57753;DHT22;43583;53.132;6.574;2022-11-11T05:27:27;11.20;99.90
57753;DHT22;43583;53.132;6.574;2022-11-11T05:29:53;11.20;99.90
57753;DHT22;43583;53.132;6.574;2022-11-11T05:32:20;11.20;99.90
57753;DHT22;43583;53.132;6.574;2022-11-11T05:34:46;11.20;99.90
57753;DHT22;43583;53.132;6.574;2022-11-11T05:37:12;11.10;99.90
57753;DHT22;43583;53.132;6.574;2022-11-11T05:39:38;11.10;99.90
57753;DHT22;43583;53.132;6.574;2022-11-11T05:42:04;11.00;99.90
57753;DHT22;43583;53.132;6.574;2022-11-11T05:44:29;11.00;99.90
57753;DHT22;43583;53.132;6.574;2022-11-11T05:46:55;10.90;99.90
57753;DHT22;43583;53.132;6.574;2022-11-11T05:49:21;10.80;99.90
57753;DHT22;43583;53.132;6.574;2022-11-11T05:51:47;10.80;99.90
57753;DHT22;43583;53.132;6.574;2022-11-11T05:54:13;10.80;99.90
57753;DHT22;43583;53.132;6.574;2022-11-11T05:56:39;10.80;99.90
57753;DHT22;43583;53.132;6.574;2022-11-11T05:59:05;10.80;99.90
57753;DHT22;43583;53.132;6.574;2022-11-11T06:01:31;10.90;99.90
57753;DHT22;43583;53.132;6.574;2022-11-11T06:03:57;10.90;99.90
57753;DHT22;43583;53.132;6.574;2022-11-11T06:06:22;10.90;99.90
57753;DHT22;43583;53.132;6.574;2022-11-11T06:08:48;11.00;99.90
57753;DHT22;43583;53.132;6.574;2022-11-11T06:11:13;11.10;99.90
57753;DHT22;43583;53.132;6.574;2022-11-11T06:13:39;11.10;99.90
57753;DHT22;43583;53.132;6.574;2022-11-11T06:16:05;11.10;99.90
57753;DHT22;43583;53.132;6.574;2022-11-11T06:18:30;11.20;99.90
57753;DHT22;43583;53.132;6.574;2022-11-11T06:20:57;11.20;99.90
57753;DHT22;43583;53.132;6.574;2022-11-11T06:23:23;11.20;99.90
57753;DHT22;43583;53.132;6.574;2022-11-11T06:25:49;11.20;99.90
57753;DHT22;43583;53.132;6.574;2022-11-11T06:28:34;11.20;99.90
57753;DHT22;43583;53.132;6.574;2022-11-11T06:31:00;11.30;99.90
57753;DHT22;43583;53.132;6.574;2022-11-11T06:33:26;11.30;99.90
57753;DHT22;43583;53.132;6.574;2022-11-11T06:35:51;11.30;99.90
57753;DHT22;43583;53.132;6.574;2022-11-11T06:38:17;11.30;99.90
57753;DHT22;43583;53.132;6.574;2022-11-11T06:40:43;11.30;99.90
57753;DHT22;43583;53.132;6.574;2022-11-11T06:43:09;11.30;99.90
57753;DHT22;43583;53.132;6.574;2022-11-11T06:45:35;11.30;99.90
57753;DHT22;43583;53.132;6.574;2022-11-11T06:48:02;11.30;99.90
57753;DHT22;43583;53.132;6.574;2022-11-11T06:50:29;11.30;99.90
57753;DHT22;43583;53.132;6.574;2022-11-11T06:52:55;11.30;99.90
57753;DHT22;43583;53.132;6.574;2022-11-11T06:55:20;11.30;99.90
57753;DHT22;43583;53.132;6.574;2022-11-11T06:57:46;11.30;99.90
57753;DHT22;43583;53.132;6.574;2022-11-11T07:00:12;11.30;99.90
57753;DHT22;43583;53.132;6.574;2022-11-11T07:02:38;11.30;99.90
57753;DHT22;43583;53.132;6.574;2022-11-11T07:05:04;11.30;99.90
57753;DHT22;43583;53.132;6.574;2022-11-11T07:07:30;11.30;99.90
57753;DHT22;43583;53.132;6.574;2022-11-11T07:09:56;11.30;99.90
57753;DHT22;43583;53.132;6.574;2022-11-11T07:12:22;11.30;99.90
57753;DHT22;43583;53.132;6.574;2022-11-11T07:14:48;11.30;99.90
57753;DHT22;43583;53.132;6.574;2022-11-11T07:17:13;11.30;99.90
57753;DHT22;43583;53.132;6.574;2022-11-11T07:19:39;11.30;99.90
57753;DHT22;43583;53.132;6.574;2022-11-11T07:22:05;11.30;99.90
57753;DHT22;43583;53.132;6.574;2022-11-11T07:24:30;11.30;99.90
57753;DHT22;43583;53.132;6.574;2022-11-11T07:26:56;11.30;99.90
57753;DHT22;43583;53.132;6.574;2022-11-11T07:29:23;11.30;99.90
57753;DHT22;43583;53.132;6.574;2022-11-11T07:31:49;11.40;99.90
57753;DHT22;43583;53.132;6.574;2022-11-11T07:34:15;11.40;99.90
57753;DHT22;43583;53.132;6.574;2022-11-11T07:36:41;11.40;99.90
57753;DHT22;43583;53.132;6.574;2022-11-11T07:39:06;11.40;99.90
57753;DHT22;43583;53.132;6.574;2022-11-11T07:41:32;11.40;99.90
57753;DHT22;43583;53.132;6.574;2022-11-11T07:43:58;11.40;99.90
57753;DHT22;43583;53.132;6.574;2022-11-11T07:46:23;11.40;99.90
57753;DHT22;43583;53.132;6.574;2022-11-11T07:48:49;11.40;99.90
57753;DHT22;43583;53.132;6.574;2022-11-11T07:51:15;11.40;99.90
57753;DHT22;43583;53.132;6.574;2022-11-11T07:53:40;11.50;99.90
57753;DHT22;43583;53.132;6.574;2022-11-11T07:56:06;11.40;99.90
57753;DHT22;43583;53.132;6.574;2022-11-11T07:58:32;11.50;99.90
57753;DHT22;43583;53.132;6.574;2022-11-11T08:01:00;11.40;99.90
57753;DHT22;43583;53.132;6.574;2022-11-11T08:03:26;11.50;99.90
57753;DHT22;43583;53.132;6.574;2022-11-11T08:05:56;11.50;99.90
57753;DHT22;43583;53.132;6.574;2022-11-11T08:08:22;11.50;99.90
57753;DHT22;43583;53.132;6.574;2022-11-11T08:10:54;11.50;99.90
57753;DHT22;43583;53.132;6.574;2022-11-11T08:13:20;11.50;99.90
57753;DHT22;43583;53.132;6.574;2022-11-11T08:16:05;11.50;99.90
57753;DHT22;43583;53.132;6.574;2022-11-11T08:18:31;11.50;99.90
57753;DHT22;43583;53.132;6.574;2022-11-11T08:20:57;11.60;99.90
57753;DHT22;43583;53.132;6.574;2022-11-11T08:23:23;11.60;99.90
57753;DHT22;43583;53.132;6.574;2022-11-11T08:25:58;11.60;99.90
57753;DHT22;43583;53.132;6.574;2022-11-11T08:28:24;11.60;99.90
57753;DHT22;43583;53.132;6.574;2022-11-11T08:30:49;11.60;99.90
57753;DHT22;43583;53.132;6.574;2022-11-11T08:33:15;11.70;99.90
57753;DHT22;43583;53.132;6.574;2022-11-11T08:35:41;11.70;99.90
57753;DHT22;43583;53.132;6.574;2022-11-11T08:38:06;11.70;99.90
57753;DHT22;43583;53.132;6.574;2022-11-11T08:40:32;11.70;99.90
57753;DHT22;43583;53.132;6.574;2022-11-11T08:42:58;11.70;99.90
57753;DHT22;43583;53.132;6.574;2022-11-11T08:45:24;11.70;99.90
57753;DHT22;43583;53.132;6.574;2022-11-11T08:47:50;11.70;99.90
57753;DHT22;43583;53.132;6.574;2022-11-11T08:50:17;11.70;99.90
57753;DHT22;43583;53.132;6.574;2022-11-11T08:52:46;11.70;99.90
57753;DHT22;43583;53.132;6.574;2022-11-11T08:55:12;11.70;99.90
57753;DHT22;43583;53.132;6.574;2022-11-11T08:57:38;11.70;99.90
57753;DHT22;43583;53.132;6.574;2022-11-11T09:00:05;11.70;99.90
57753;DHT22;43583;53.132;6.574;2022-11-11T09:02:31;11.80;99.90
57753;DHT22;43583;53.132;6.574;2022-11-11T09:04:56;11.80;99.90
57753;DHT22;43583;53.132;6.574;2022-11-11T09:07:22;11.80;99.90
57753;DHT22;43583;53.132;6.574;2022-11-11T09:09:48;11.70;99.90
57753;DHT22;43583;53.132;6.574;2022-11-11T09:12:13;11.70;99.90
57753;DHT22;43583;53.132;6.574;2022-11-11T09:14:39;11.70;99.90
57753;DHT22;43583;53.132;6.574;2022-11-11T09:17:05;11.80;99.90
57753;DHT22;43583;53.132;6.574;2022-11-11T09:19:31;11.80;99.90
57753;DHT22;43583;53.132;6.574;2022-11-11T09:21:57;11.80;99.90
57753;DHT22;43583;53.132;6.574;2022-11-11T09:24:22;11.80;99.90
57753;DHT22;43583;53.132;6.574;2022-11-11T09:26:48;11.80;99.90
57753;DHT22;43583;53.132;6.574;2022-11-11T09:29:14;11.80;99.90
57753;DHT22;43583;53.132;6.574;2022-11-11T09:31:40;11.90;99.90
57753;DHT22;43583;53.132;6.574;2022-11-11T09:34:06;11.80;99.90
57753;DHT22;43583;53.132;6.574;2022-11-11T09:36:32;11.80;99.90
57753;DHT22;43583;53.132;6.574;2022-11-11T09:38:58;11.80;99.90
57753;DHT22;43583;53.132;6.574;2022-11-11T09:41:27;11.90;99.90
57753;DHT22;43583;53.132;6.574;2022-11-11T09:44:01;11.80;99.90
57753;DHT22;43583;53.132;6.574;2022-11-11T09:46:32;11.80;99.90
57753;DHT22;43583;53.132;6.574;2022-11-11T09:49:23;11.80;99.90
57753;DHT22;43583;53.132;6.574;2022-11-11T09:52:11;11.90;99.90
57753;DHT22;43583;53.132;6.574;2022-11-11T10:00:31;11.90;99.90
57753;DHT22;43583;53.132;6.574;2022-11-11T10:03:04;11.90;99.90
57753;DHT22;43583;53.132;6.574;2022-11-11T10:05:59;11.90;99.90
57753;DHT22;43583;53.132;6.574;2022-11-11T10:08:29;11.90;99.90
57753;DHT22;43583;53.132;6.574;2022-11-11T10:11:02;11.90;99.90
57753;DHT22;43583;53.132;6.574;2022-11-11T10:13:34;12.00;99.90
57753;DHT22;43583;53.132;6.574;2022-11-11T10:16:20;11.90;99.90
57753;DHT22;43583;53.132;6.574;2022-11-11T10:19:20;12.00;99.90
57753;DHT22;43583;53.132;6.574;2022-11-11T10:21:53;12.00;99.90
57753;DHT22;43583;53.132;6.574;2022-11-11T10:24:31;12.00;99.90
57753;DHT22;43583;53.132;6.574;2022-11-11T10:27:01;12.00;99.90
57753;DHT22;43583;53.132;6.574;2022-11-11T10:29:35;12.00;99.90
57753;DHT22;43583;53.132;6.574;2022-11-11T10:32:18;12.00;99.90
57753;DHT22;43583;53.132;6.574;2022-11-11T10:34:45;12.00;99.90
57753;DHT22;43583;53.132;6.574;2022-11-11T10:37:18;12.00;99.90
57753;DHT22;43583;53.132;6.574;2022-11-11T10:39:55;12.10;99.90
57753;DHT22;43583;53.132;6.574;2022-11-11T10:42:24;12.10;99.90
57753;DHT22;43583;53.132;6.574;2022-11-11T10:44:50;12.10;99.90
57753;DHT22;43583;53.132;6.574;2022-11-11T10:47:31;12.10;99.90
57753;DHT22;43583;53.132;6.574;2022-11-11T10:52:35;12.20;99.90
57753;DHT22;43583;53.132;6.574;2022-11-11T10:55:09;12.30;99.90
57753;DHT22;43583;53.132;6.574;2022-11-11T10:57:41;12.30;99.90
57753;DHT22;43583;53.132;6.574;2022-11-11T11:00:11;12.30;99.90
57753;DHT22;43583;53.132;6.574;2022-11-11T11:08:05;12.50;99.90
57753;DHT22;43583;53.132;6.574;2022-11-11T11:10:36;12.50;99.90
57753;DHT22;43583;53.132;6.574;2022-11-11T11:13:06;12.60;99.90
57753;DHT22;43583;53.132;6.574;2022-11-11T11:15:38;12.60;99.90
57753;DHT22;43583;53.132;6.574;2022-11-11T11:18:10;12.70;99.90
57753;DHT22;43583;53.132;6.574;2022-11-11T11:20:37;12.60;99.90
57753;DHT22;43583;53.132;6.574;2022-11-11T11:23:02;12.70;99.90
57753;DHT22;43583;53.132;6.574;2022-11-11T11:25:30;12.70;99.90
57753;DHT22;43583;53.132;6.574;2022-11-11T11:28:11;12.80;99.90
57753;DHT22;43583;53.132;6.574;2022-11-11T11:30:37;12.80;99.90
57753;DHT22;43583;53.132;6.574;2022-11-11T11:33:05;12.80;99.90
57753;DHT22;43583;53.132;6.574;2022-11-11T11:37:58;12.80;99.90
57753;DHT22;43583;53.132;6.574;2022-11-11T11:40:24;12.80;99.90
57753;DHT22;43583;53.132;6.574;2022-11-11T11:42:49;12.80;99.90
57753;DHT22;43583;53.132;6.574;2022-11-11T11:45:26;12.80;99.90
57753;DHT22;43583;53.132;6.574;2022-11-11T11:48:01;12.80;99.90
57753;DHT22;43583;53.132;6.574;2022-11-11T11:50:59;12.80;99.90
57753;DHT22;43583;53.132;6.574;2022-11-11T11:56:38;12.70;99.90
57753;DHT22;43583;53.132;6.574;2022-11-11T12:01:55;12.60;99.90
57753;DHT22;43583;53.132;6.574;2022-11-11T12:07:11;12.50;99.90
57753;DHT22;43583;53.132;6.574;2022-11-11T12:12:55;12.50;99.90
57753;DHT22;43583;53.132;6.574;2022-11-11T12:15:41;12.50;99.90
57753;DHT22;43583;53.132;6.574;2022-11-11T12:18:45;12.50;99.90
57753;DHT22;43583;53.132;6.574;2022-11-11T12:21:16;12.50;99.90
57753;DHT22;43583;53.132;6.574;2022-11-11T12:30:09;12.40;99.90
57753;DHT22;43583;53.132;6.574;2022-11-11T12:35:40;12.40;99.90
57753;DHT22;43583;53.132;6.574;2022-11-11T12:41:47;12.30;99.90
57753;DHT22;43583;53.132;6.574;2022-11-11T12:44:16;12.30;99.90
57753;DHT22;43583;53.132;6.574;2022-11-11T12:47:18;12.30;99.90
57753;DHT22;43583;53.132;6.574;2022-11-11T12:50:02;12.30;99.90
57753;DHT22;43583;53.132;6.574;2022-11-11T12:55:35;12.30;99.90
57753;DHT22;43583;53.132;6.574;2022-11-11T13:00:41;12.30;99.90
57753;DHT22;43583;53.132;6.574;2022-11-11T13:03:24;12.30;99.90
57753;DHT22;43583;53.132;6.574;2022-11-11T13:12:00;12.20;99.90
57753;DHT22;43583;53.132;6.574;2022-11-11T13:17:00;12.20;99.90
57753;DHT22;43583;53.132;6.574;2022-11-11T13:20:22;12.20;99.90
57753;DHT22;43583;53.132;6.574;2022-11-11T13:22:51;12.20;99.90
57753;DHT22;43583;53.132;6.574;2022-11-11T13:25:22;12.20;99.90
57753;DHT22;43583;53.132;6.574;2022-11-11T13:27:52;12.20;99.90
57753;DHT22;43583;53.132;6.574;2022-11-11T13:30:48;12.20;99.90
57753;DHT22;43583;53.132;6.574;2022-11-11T13:33:43;12.20;99.90
57753;DHT22;43583;53.132;6.574;2022-11-11T13:36:14;12.20;99.90
57753;DHT22;43583;53.132;6.574;2022-11-11T13:38:46;12.20;99.90
57753;DHT22;43583;53.132;6.574;2022-11-11T13:41:23;12.20;99.90
57753;DHT22;43583;53.132;6.574;2022-11-11T13:43:50;12.20;99.90
57753;DHT22;43583;53.132;6.574;2022-11-11T13:46:38;12.10;99.90
57753;DHT22;43583;53.132;6.574;2022-11-11T13:49:23;12.20;99.90
57753;DHT22;43583;53.132;6.574;2022-11-11T13:52:04;12.10;99.90
57753;DHT22;43583;53.132;6.574;2022-11-11T13:54:35;12.10;99.90
57753;DHT22;43583;53.132;6.574;2022-11-11T13:57:07;12.10;99.90
57753;DHT22;43583;53.132;6.574;2022-11-11T13:59:41;12.10;99.90
57753;DHT22;43583;53.132;6.574;2022-11-11T14:12:50;12.20;99.90
57753;DHT22;43583;53.132;6.574;2022-11-11T14:18:02;12.20;99.90
57753;DHT22;43583;53.132;6.574;2022-11-11T14:20:37;12.20;99.90
57753;DHT22;43583;53.132;6.574;2022-11-11T14:23:41;12.20;99.90
57753;DHT22;43583;53.132;6.574;2022-11-11T14:28:58;12.20;99.90
57753;DHT22;43583;53.132;6.574;2022-11-11T14:31:39;12.20;99.90
57753;DHT22;43583;53.132;6.574;2022-11-11T14:34:22;12.20;99.90
57753;DHT22;43583;53.132;6.574;2022-11-11T14:37:18;12.20;99.90
57753;DHT22;43583;53.132;6.574;2022-11-11T14:39:53;12.20;99.90
57753;DHT22;43583;53.132;6.574;2022-11-11T14:45:49;12.10;99.90
57753;DHT22;43583;53.132;6.574;2022-11-11T14:47:51;12.10;99.90
57753;DHT22;43583;53.132;6.574;2022-11-11T14:53:18;12.00;99.90
57753;DHT22;43583;53.132;6.574;2022-11-11T14:55:51;12.00;99.90
57753;DHT22;43583;53.132;6.574;2022-11-11T14:58:24;12.00;99.90
57753;DHT22;43583;53.132;6.574;2022-11-11T15:03:50;12.00;99.90
57753;DHT22;43583;53.132;6.574;2022-11-11T15:06:34;11.90;99.90
57753;DHT22;43583;53.132;6.574;2022-11-11T15:12:03;11.90;99.90
57753;DHT22;43583;53.132;6.574;2022-11-11T15:14:58;11.90;99.90
57753;DHT22;43583;53.132;6.574;2022-11-11T15:17:34;11.90;99.90
57753;DHT22;43583;53.132;6.574;2022-11-11T15:39:12;11.70;99.90
57753;DHT22;43583;53.132;6.574;2022-11-11T15:41:41;11.70;99.90
57753;DHT22;43583;53.132;6.574;2022-11-11T15:44:26;11.70;99.90
57753;DHT22;43583;53.132;6.574;2022-11-11T15:46:53;11.70;99.90
57753;DHT22;43583;53.132;6.574;2022-11-11T15:49:45;11.70;99.90
57753;DHT22;43583;53.132;6.574;2022-11-11T15:52:29;11.70;99.90
57753;DHT22;43583;53.132;6.574;2022-11-11T15:54:56;11.60;99.90
57753;DHT22;43583;53.132;6.574;2022-11-11T15:57:33;11.60;99.90
57753;DHT22;43583;53.132;6.574;2022-11-11T16:00:01;11.60;99.90
57753;DHT22;43583;53.132;6.574;2022-11-11T16:02:30;11.60;99.90
57753;DHT22;43583;53.132;6.574;2022-11-11T16:05:17;11.60;99.90
57753;DHT22;43583;53.132;6.574;2022-11-11T16:07:45;11.60;99.90
57753;DHT22;43583;53.132;6.574;2022-11-11T16:10:18;11.60;99.90
57753;DHT22;43583;53.132;6.574;2022-11-11T16:15:36;11.50;99.90
57753;DHT22;43583;53.132;6.574;2022-11-11T16:18:10;11.50;99.90
57753;DHT22;43583;53.132;6.574;2022-11-11T16:21:05;11.50;99.90
57753;DHT22;43583;53.132;6.574;2022-11-11T16:23:32;11.60;99.90
57753;DHT22;43583;53.132;6.574;2022-11-11T16:25:58;11.50;99.90
57753;DHT22;43583;53.132;6.574;2022-11-11T16:28:26;11.50;99.90
57753;DHT22;43583;53.132;6.574;2022-11-11T16:30:55;11.50;99.90
57753;DHT22;43583;53.132;6.574;2022-11-11T16:35:52;11.50;99.90
57753;DHT22;43583;53.132;6.574;2022-11-11T16:38:31;11.50;99.90
57753;DHT22;43583;53.132;6.574;2022-11-11T16:40:57;11.50;99.90
57753;DHT22;43583;53.132;6.574;2022-11-11T16:45:54;11.50;99.90
57753;DHT22;43583;53.132;6.574;2022-11-11T16:51:24;11.50;99.90
57753;DHT22;43583;53.132;6.574;2022-11-11T16:54:19;11.50;99.90
57753;DHT22;43583;53.132;6.574;2022-11-11T16:56:49;11.50;99.90
57753;DHT22;43583;53.132;6.574;2022-11-11T16:59:21;11.50;99.90
57753;DHT22;43583;53.132;6.574;2022-11-11T17:01:47;11.50;99.90
57753;DHT22;43583;53.132;6.574;2022-11-11T17:04:13;11.50;99.90
57753;DHT22;43583;53.132;6.574;2022-11-11T17:11:55;11.50;99.90
57753;DHT22;43583;53.132;6.574;2022-11-11T17:14:21;11.50;99.90
57753;DHT22;43583;53.132;6.574;2022-11-11T17:16:47;11.50;99.90
57753;DHT22;43583;53.132;6.574;2022-11-11T17:19:13;11.50;99.90
57753;DHT22;43583;53.132;6.574;2022-11-11T17:21:38;11.50;99.90
57753;DHT22;43583;53.132;6.574;2022-11-11T17:24:04;11.50;99.90
57753;DHT22;43583;53.132;6.574;2022-11-11T17:26:29;11.50;99.90
57753;DHT22;43583;53.132;6.574;2022-11-11T17:28:56;11.50;99.90
57753;DHT22;43583;53.132;6.574;2022-11-11T17:31:22;11.50;99.90
57753;DHT22;43583;53.132;6.574;2022-11-11T17:33:48;11.50;99.90
57753;DHT22;43583;53.132;6.574;2022-11-11T17:36:14;11.50;99.90
57753;DHT22;43583;53.132;6.574;2022-11-11T17:38:39;11.50;99.90
57753;DHT22;43583;53.132;6.574;2022-11-11T17:41:05;11.40;99.90
57753;DHT22;43583;53.132;6.574;2022-11-11T17:43:31;11.50;99.90
57753;DHT22;43583;53.132;6.574;2022-11-11T17:46:01;11.40;99.90
57753;DHT22;43583;53.132;6.574;2022-11-11T17:48:27;11.50;99.90
57753;DHT22;43583;53.132;6.574;2022-11-11T17:50:52;11.40;99.90
57753;DHT22;43583;53.132;6.574;2022-11-11T17:53:18;11.50;99.90
57753;DHT22;43583;53.132;6.574;2022-11-11T17:55:43;11.40;99.90
57753;DHT22;43583;53.132;6.574;2022-11-11T17:58:12;11.40;99.90
57753;DHT22;43583;53.132;6.574;2022-11-11T18:00:38;11.40;99.90
57753;DHT22;43583;53.132;6.574;2022-11-11T18:03:05;11.40;99.90
57753;DHT22;43583;53.132;6.574;2022-11-11T18:05:33;11.40;99.90
57753;DHT22;43583;53.132;6.574;2022-11-11T18:07:58;11.40;99.90